sensor_id;sensor_type;location;lat;lon;timestamp;temperature;humidity
52889;DHT22;41413;52.770;6.892;2023-04-25T00:00:17;7.20;99.90
52889;DHT22;41413;52.770;6.892;2023-04-25T00:02:43;7.20;99.90
52889;DHT22;41413;52.770;6.892;2023-04-25T00:05:11;7.20;99.90
52889;DHT22;41413;52.770;6.892;2023-04-25T00:07:38;7.10;99.90
52889;DHT22;41413;52.770;6.892;2023-04-25T00:10:06;7.20;99.90
52889;DHT22;41413;52.770;6.892;2023-04-25T00:12:33;7.20;99.90
52889;DHT22;41413;52.770;6.892;2023-04-25T00:15:00;7.10;99.90
52889;DHT22;41413;52.770;6.892;2023-04-25T00:17:26;7.10;99.90
52889;DHT22;41413;52.770;6.892;2023-04-25T00:19:53;7.20;99.90
52889;DHT22;41413;52.770;6.892;2023-04-25T00:22:20;7.20;99.90
52889;DHT22;41413;52.770;6.892;2023-04-25T00:24:47;7.20;99.90
52889;DHT22;41413;52.770;6.892;2023-04-25T00:27:14;7.20;99.90
52889;DHT22;41413;52.770;6.892;2023-04-25T00:29:42;7.20;99.90
52889;DHT22;41413;52.770;6.892;2023-04-25T00:32:09;7.20;99.90
52889;DHT22;41413;52.770;6.892;2023-04-25T00:34:36;7.20;99.90
52889;DHT22;41413;52.770;6.892;2023-04-25T00:37:03;7.10;99.90
52889;DHT22;41413;52.770;6.892;2023-04-25T00:39:29;7.10;99.90
52889;DHT22;41413;52.770;6.892;2023-04-25T00:41:56;7.00;99.90
52889;DHT22;41413;52.770;6.892;2023-04-25T00:44:24;7.00;99.90
52889;DHT22;41413;52.770;6.892;2023-04-25T00:46:54;7.00;99.90
52889;DHT22;41413;52.770;6.892;2023-04-25T00:49:21;6.90;99.90
52889;DHT22;41413;52.770;6.892;2023-04-25T00:51:48;6.90;99.90
52889;DHT22;41413;52.770;6.892;2023-04-25T00:54:15;6.80;99.90
52889;DHT22;41413;52.770;6.892;2023-04-25T00:56:42;6.70;99.90
52889;DHT22;41413;52.770;6.892;2023-04-25T00:59:09;6.70;99.90
52889;DHT22;41413;52.770;6.892;2023-04-25T01:01:36;6.70;99.90
52889;DHT22;41413;52.770;6.892;2023-04-25T01:04:05;6.60;99.90
52889;DHT22;41413;52.770;6.892;2023-04-25T01:06:32;6.60;99.90
52889;DHT22;41413;52.770;6.892;2023-04-25T01:08:59;6.50;99.90
52889;DHT22;41413;52.770;6.892;2023-04-25T01:11:26;6.60;99.90
52889;DHT22;41413;52.770;6.892;2023-04-25T01:13:52;6.50;99.90
52889;DHT22;41413;52.770;6.892;2023-04-25T01:16:19;6.60;99.90
52889;DHT22;41413;52.770;6.892;2023-04-25T01:18:47;6.50;99.90
52889;DHT22;41413;52.770;6.892;2023-04-25T01:21:14;6.50;99.90
52889;DHT22;41413;52.770;6.892;2023-04-25T01:23:42;6.60;99.90
52889;DHT22;41413;52.770;6.892;2023-04-25T01:26:10;6.60;99.90
52889;DHT22;41413;52.770;6.892;2023-04-25T01:28:38;6.60;99.90
52889;DHT22;41413;52.770;6.892;2023-04-25T01:31:08;6.50;99.90
52889;DHT22;41413;52.770;6.892;2023-04-25T01:33:35;6.50;99.90
52889;DHT22;41413;52.770;6.892;2023-04-25T01:36:01;6.60;99.90
52889;DHT22;41413;52.770;6.892;2023-04-25T01:38:28;6.50;99.90
52889;DHT22;41413;52.770;6.892;2023-04-25T01:40:56;6.50;99.90
52889;DHT22;41413;52.770;6.892;2023-04-25T01:43:22;6.50;99.90
52889;DHT22;41413;52.770;6.892;2023-04-25T01:45:50;6.40;99.90
52889;DHT22;41413;52.770;6.892;2023-04-25T01:48:18;6.40;99.90
52889;DHT22;41413;52.770;6.892;2023-04-25T01:50:46;6.40;99.90
52889;DHT22;41413;52.770;6.892;2023-04-25T01:53:13;6.30;99.90
52889;DHT22;41413;52.770;6.892;2023-04-25T01:55:41;6.30;99.90
52889;DHT22;41413;52.770;6.892;2023-04-25T01:58:08;6.30;99.90
52889;DHT22;41413;52.770;6.892;2023-04-25T02:00:36;6.30;99.90
52889;DHT22;41413;52.770;6.892;2023-04-25T02:03:07;6.30;99.90
52889;DHT22;41413;52.770;6.892;2023-04-25T02:05:38;6.30;99.90
52889;DHT22;41413;52.770;6.892;2023-04-25T02:08:06;6.20;99.90
52889;DHT22;41413;52.770;6.892;2023-04-25T02:10:34;6.20;99.90
52889;DHT22;41413;52.770;6.892;2023-04-25T02:13:01;6.10;99.90
52889;DHT22;41413;52.770;6.892;2023-04-25T02:15:27;6.10;99.90
52889;DHT22;41413;52.770;6.892;2023-04-25T02:17:54;6.10;99.90
52889;DHT22;41413;52.770;6.892;2023-04-25T02:20:22;6.10;99.90
52889;DHT22;41413;52.770;6.892;2023-04-25T02:22:49;6.10;99.90
52889;DHT22;41413;52.770;6.892;2023-04-25T02:25:17;6.10;99.90
52889;DHT22;41413;52.770;6.892;2023-04-25T02:27:44;6.20;99.90
52889;DHT22;41413;52.770;6.892;2023-04-25T02:30:10;6.20;99.90
52889;DHT22;41413;52.770;6.892;2023-04-25T02:32:38;6.20;99.90
52889;DHT22;41413;52.770;6.892;2023-04-25T02:35:06;6.20;99.90
52889;DHT22;41413;52.770;6.892;2023-04-25T02:37:34;6.20;99.90
52889;DHT22;41413;52.770;6.892;2023-04-25T02:40:01;6.20;99.90
52889;DHT22;41413;52.770;6.892;2023-04-25T02:42:29;6.20;99.90
52889;DHT22;41413;52.770;6.892;2023-04-25T02:44:56;6.20;99.90
52889;DHT22;41413;52.770;6.892;2023-04-25T02:47:23;6.20;99.90
52889;DHT22;41413;52.770;6.892;2023-04-25T02:49:50;6.20;99.90
52889;DHT22;41413;52.770;6.892;2023-04-25T02:52:16;6.30;99.90
52889;DHT22;41413;52.770;6.892;2023-04-25T02:54:43;6.20;99.90
52889;DHT22;41413;52.770;6.892;2023-04-25T02:57:10;6.30;99.90
52889;DHT22;41413;52.770;6.892;2023-04-25T02:59:36;6.20;99.90
52889;DHT22;41413;52.770;6.892;2023-04-25T03:02:03;6.20;99.90
52889;DHT22;41413;52.770;6.892;2023-04-25T03:04:30;6.30;99.90
52889;DHT22;41413;52.770;6.892;2023-04-25T03:06:57;6.30;99.90
52889;DHT22;41413;52.770;6.892;2023-04-25T03:09:23;6.30;99.90
52889;DHT22;41413;52.770;6.892;2023-04-25T03:11:50;6.30;99.90
52889;DHT22;41413;52.770;6.892;2023-04-25T03:14:17;6.30;99.90
52889;DHT22;41413;52.770;6.892;2023-04-25T03:16:43;6.30;99.90
52889;DHT22;41413;52.770;6.892;2023-04-25T03:19:10;6.30;99.90
52889;DHT22;41413;52.770;6.892;2023-04-25T03:21:37;6.30;99.90
52889;DHT22;41413;52.770;6.892;2023-04-25T03:24:04;6.30;99.90
52889;DHT22;41413;52.770;6.892;2023-04-25T03:26:31;6.30;99.90
52889;DHT22;41413;52.770;6.892;2023-04-25T03:28:58;6.30;99.90
52889;DHT22;41413;52.770;6.892;2023-04-25T03:31:24;6.30;99.90
52889;DHT22;41413;52.770;6.892;2023-04-25T03:33:51;6.30;99.90
52889;DHT22;41413;52.770;6.892;2023-04-25T03:36:18;6.30;99.90
52889;DHT22;41413;52.770;6.892;2023-04-25T03:38:45;6.20;99.90
52889;DHT22;41413;52.770;6.892;2023-04-25T03:41:11;6.30;99.90
52889;DHT22;41413;52.770;6.892;2023-04-25T03:43:38;6.30;99.90
52889;DHT22;41413;52.770;6.892;2023-04-25T03:46:05;6.30;99.90
52889;DHT22;41413;52.770;6.892;2023-04-25T03:48:31;6.20;99.90
52889;DHT22;41413;52.770;6.892;2023-04-25T03:50:58;6.20;99.90
52889;DHT22;41413;52.770;6.892;2023-04-25T03:53:25;6.20;99.90
52889;DHT22;41413;52.770;6.892;2023-04-25T03:55:52;6.30;99.90
52889;DHT22;41413;52.770;6.892;2023-04-25T03:58:19;6.30;99.90
52889;DHT22;41413;52.770;6.892;2023-04-25T04:00:45;6.20;99.90
52889;DHT22;41413;52.770;6.892;2023-04-25T04:03:12;6.20;99.90
52889;DHT22;41413;52.770;6.892;2023-04-25T04:05:39;6.20;99.90
52889;DHT22;41413;52.770;6.892;2023-04-25T04:08:07;6.20;99.90
52889;DHT22;41413;52.770;6.892;2023-04-25T04:10:33;6.20;99.90
52889;DHT22;41413;52.770;6.892;2023-04-25T04:13:01;6.20;99.90
52889;DHT22;41413;52.770;6.892;2023-04-25T04:15:27;6.20;99.90
52889;DHT22;41413;52.770;6.892;2023-04-25T04:17:54;6.20;99.90
52889;DHT22;41413;52.770;6.892;2023-04-25T04:20:21;6.20;99.90
52889;DHT22;41413;52.770;6.892;2023-04-25T04:22:48;6.20;99.90
52889;DHT22;41413;52.770;6.892;2023-04-25T04:25:15;6.20;99.90
52889;DHT22;41413;52.770;6.892;2023-04-25T04:27:41;6.20;99.90
52889;DHT22;41413;52.770;6.892;2023-04-25T04:30:08;6.20;99.90
52889;DHT22;41413;52.770;6.892;2023-04-25T04:32:36;6.20;99.90
52889;DHT22;41413;52.770;6.892;2023-04-25T04:35:03;6.10;99.90
52889;DHT22;41413;52.770;6.892;2023-04-25T04:37:30;6.10;99.90
52889;DHT22;41413;52.770;6.892;2023-04-25T04:39:57;6.00;99.90
52889;DHT22;41413;52.770;6.892;2023-04-25T04:42:24;6.00;99.90
52889;DHT22;41413;52.770;6.892;2023-04-25T04:44:51;5.90;99.90
52889;DHT22;41413;52.770;6.892;2023-04-25T04:47:18;5.90;99.90
52889;DHT22;41413;52.770;6.892;2023-04-25T04:49:46;5.90;99.90
52889;DHT22;41413;52.770;6.892;2023-04-25T04:52:13;5.90;99.90
52889;DHT22;41413;52.770;6.892;2023-04-25T04:54:39;6.00;99.90
52889;DHT22;41413;52.770;6.892;2023-04-25T04:57:06;5.90;99.90
52889;DHT22;41413;52.770;6.892;2023-04-25T04:59:33;6.00;99.90
52889;DHT22;41413;52.770;6.892;2023-04-25T05:01:59;6.00;99.90
52889;DHT22;41413;52.770;6.892;2023-04-25T05:04:26;5.90;99.90
52889;DHT22;41413;52.770;6.892;2023-04-25T05:06:53;5.70;99.90
52889;DHT22;41413;52.770;6.892;2023-04-25T05:09:20;6.00;99.90
52889;DHT22;41413;52.770;6.892;2023-04-25T05:11:46;6.10;99.90
52889;DHT22;41413;52.770;6.892;2023-04-25T05:14:13;6.10;99.90
52889;DHT22;41413;52.770;6.892;2023-04-25T05:16:40;6.20;99.90
52889;DHT22;41413;52.770;6.892;2023-04-25T05:19:07;6.20;99.90
52889;DHT22;41413;52.770;6.892;2023-04-25T05:21:33;6.40;99.90
52889;DHT22;41413;52.770;6.892;2023-04-25T05:24:01;6.20;99.90
52889;DHT22;41413;52.770;6.892;2023-04-25T05:26:28;6.30;99.90
52889;DHT22;41413;52.770;6.892;2023-04-25T05:28:57;6.40;99.90
52889;DHT22;41413;52.770;6.892;2023-04-25T05:31:24;6.50;99.90
52889;DHT22;41413;52.770;6.892;2023-04-25T05:33:51;6.50;99.90
52889;DHT22;41413;52.770;6.892;2023-04-25T05:36:19;6.40;99.90
52889;DHT22;41413;52.770;6.892;2023-04-25T05:38:46;6.40;99.90
52889;DHT22;41413;52.770;6.892;2023-04-25T05:41:12;6.50;99.90
52889;DHT22;41413;52.770;6.892;2023-04-25T05:43:39;6.50;99.90
52889;DHT22;41413;52.770;6.892;2023-04-25T05:46:11;6.50;99.90
52889;DHT22;41413;52.770;6.892;2023-04-25T05:48:39;6.50;99.90
52889;DHT22;41413;52.770;6.892;2023-04-25T05:51:06;6.60;99.90
52889;DHT22;41413;52.770;6.892;2023-04-25T05:53:32;6.60;99.90
52889;DHT22;41413;52.770;6.892;2023-04-25T05:55:59;6.60;99.90
52889;DHT22;41413;52.770;6.892;2023-04-25T05:58:26;6.60;99.90
52889;DHT22;41413;52.770;6.892;2023-04-25T06:00:52;6.60;99.90
52889;DHT22;41413;52.770;6.892;2023-04-25T06:03:19;6.60;99.90
52889;DHT22;41413;52.770;6.892;2023-04-25T06:05:47;6.70;99.90
52889;DHT22;41413;52.770;6.892;2023-04-25T06:08:14;6.70;99.90
52889;DHT22;41413;52.770;6.892;2023-04-25T06:10:40;6.80;99.90
52889;DHT22;41413;52.770;6.892;2023-04-25T06:13:07;7.20;99.90
52889;DHT22;41413;52.770;6.892;2023-04-25T06:15:34;7.40;99.90
52889;DHT22;41413;52.770;6.892;2023-04-25T06:18:01;7.70;99.90
52889;DHT22;41413;52.770;6.892;2023-04-25T06:20:28;8.10;99.90
52889;DHT22;41413;52.770;6.892;2023-04-25T06:22:55;8.40;99.90
52889;DHT22;41413;52.770;6.892;2023-04-25T06:25:21;8.50;99.90
52889;DHT22;41413;52.770;6.892;2023-04-25T06:27:48;8.60;99.90
52889;DHT22;41413;52.770;6.892;2023-04-25T06:30:15;8.50;99.90
52889;DHT22;41413;52.770;6.892;2023-04-25T06:32:44;8.50;99.90
52889;DHT22;41413;52.770;6.892;2023-04-25T06:35:11;8.60;99.90
52889;DHT22;41413;52.770;6.892;2023-04-25T06:37:38;8.50;99.90
52889;DHT22;41413;52.770;6.892;2023-04-25T06:40:05;8.50;99.90
52889;DHT22;41413;52.770;6.892;2023-04-25T06:42:32;8.80;99.90
52889;DHT22;41413;52.770;6.892;2023-04-25T06:44:58;9.10;99.90
52889;DHT22;41413;52.770;6.892;2023-04-25T06:47:25;9.30;99.90
52889;DHT22;41413;52.770;6.892;2023-04-25T06:49:52;9.20;99.90
52889;DHT22;41413;52.770;6.892;2023-04-25T06:52:18;9.20;99.90
52889;DHT22;41413;52.770;6.892;2023-04-25T06:54:45;9.30;99.90
52889;DHT22;41413;52.770;6.892;2023-04-25T06:57:12;9.30;99.90
52889;DHT22;41413;52.770;6.892;2023-04-25T06:59:39;9.30;99.90
52889;DHT22;41413;52.770;6.892;2023-04-25T07:02:06;9.20;99.90
52889;DHT22;41413;52.770;6.892;2023-04-25T07:04:32;9.20;99.90
52889;DHT22;41413;52.770;6.892;2023-04-25T07:06:59;9.30;99.90
52889;DHT22;41413;52.770;6.892;2023-04-25T07:09:29;9.30;99.90
52889;DHT22;41413;52.770;6.892;2023-04-25T07:11:56;9.50;99.90
52889;DHT22;41413;52.770;6.892;2023-04-25T07:14:23;9.40;99.90
52889;DHT22;41413;52.770;6.892;2023-04-25T07:16:49;9.30;99.90
52889;DHT22;41413;52.770;6.892;2023-04-25T07:19:16;9.20;99.90
52889;DHT22;41413;52.770;6.892;2023-04-25T07:21:43;9.10;99.90
52889;DHT22;41413;52.770;6.892;2023-04-25T07:24:09;9.20;99.90
52889;DHT22;41413;52.770;6.892;2023-04-25T07:26:36;9.30;99.90
52889;DHT22;41413;52.770;6.892;2023-04-25T07:29:03;9.60;99.90
52889;DHT22;41413;52.770;6.892;2023-04-25T07:31:30;9.60;99.90
52889;DHT22;41413;52.770;6.892;2023-04-25T07:33:57;9.70;99.90
52889;DHT22;41413;52.770;6.892;2023-04-25T07:36:27;9.80;99.90
52889;DHT22;41413;52.770;6.892;2023-04-25T07:38:54;9.70;99.90
52889;DHT22;41413;52.770;6.892;2023-04-25T07:41:20;9.70;99.90
52889;DHT22;41413;52.770;6.892;2023-04-25T07:43:47;10.10;99.90
52889;DHT22;41413;52.770;6.892;2023-04-25T07:46:14;10.30;99.90
52889;DHT22;41413;52.770;6.892;2023-04-25T07:48:40;10.50;99.90
52889;DHT22;41413;52.770;6.892;2023-04-25T07:51:07;10.60;99.90
52889;DHT22;41413;52.770;6.892;2023-04-25T07:53:34;10.90;99.90
52889;DHT22;41413;52.770;6.892;2023-04-25T07:56:02;11.00;99.90
52889;DHT22;41413;52.770;6.892;2023-04-25T07:58:29;11.10;99.90
52889;DHT22;41413;52.770;6.892;2023-04-25T08:00:55;10.90;99.90
52889;DHT22;41413;52.770;6.892;2023-04-25T08:03:22;11.30;99.90
52889;DHT22;41413;52.770;6.892;2023-04-25T08:05:49;12.20;99.90
52889;DHT22;41413;52.770;6.892;2023-04-25T08:08:16;12.60;99.90
52889;DHT22;41413;52.770;6.892;2023-04-25T08:10:43;13.00;99.90
52889;DHT22;41413;52.770;6.892;2023-04-25T08:13:09;13.20;99.90
52889;DHT22;41413;52.770;6.892;2023-04-25T08:15:36;13.00;99.90
52889;DHT22;41413;52.770;6.892;2023-04-25T08:18:03;12.80;99.90
52889;DHT22;41413;52.770;6.892;2023-04-25T08:20:29;12.60;99.90
52889;DHT22;41413;52.770;6.892;2023-04-25T08:22:56;12.70;99.90
52889;DHT22;41413;52.770;6.892;2023-04-25T08:25:23;12.80;99.90
52889;DHT22;41413;52.770;6.892;2023-04-25T08:27:50;13.10;99.90
52889;DHT22;41413;52.770;6.892;2023-04-25T08:30:16;13.40;99.90
52889;DHT22;41413;52.770;6.892;2023-04-25T08:32:43;13.90;99.90
52889;DHT22;41413;52.770;6.892;2023-04-25T08:35:10;14.50;99.90
52889;DHT22;41413;52.770;6.892;2023-04-25T08:37:37;14.50;99.90
52889;DHT22;41413;52.770;6.892;2023-04-25T08:40:05;14.50;99.90
52889;DHT22;41413;52.770;6.892;2023-04-25T08:42:33;14.10;99.90
52889;DHT22;41413;52.770;6.892;2023-04-25T08:45:03;13.50;99.90
52889;DHT22;41413;52.770;6.892;2023-04-25T08:47:33;12.90;99.90
52889;DHT22;41413;52.770;6.892;2023-04-25T08:50:04;12.30;99.90
52889;DHT22;41413;52.770;6.892;2023-04-25T08:52:40;11.90;99.90
52889;DHT22;41413;52.770;6.892;2023-04-25T08:55:09;11.10;99.90
52889;DHT22;41413;52.770;6.892;2023-04-25T08:57:39;10.70;99.90
52889;DHT22;41413;52.770;6.892;2023-04-25T09:00:07;10.30;99.90
52889;DHT22;41413;52.770;6.892;2023-04-25T09:02:35;10.20;99.90
52889;DHT22;41413;52.770;6.892;2023-04-25T09:05:02;10.60;99.90
52889;DHT22;41413;52.770;6.892;2023-04-25T09:07:30;11.70;99.90
52889;DHT22;41413;52.770;6.892;2023-04-25T09:09:57;13.10;99.90
52889;DHT22;41413;52.770;6.892;2023-04-25T09:12:27;14.10;99.90
52889;DHT22;41413;52.770;6.892;2023-04-25T09:17:28;15.40;99.60
52889;DHT22;41413;52.770;6.892;2023-04-25T09:20:05;16.10;99.90
52889;DHT22;41413;52.770;6.892;2023-04-25T09:22:32;16.70;97.30
52889;DHT22;41413;52.770;6.892;2023-04-25T09:25:03;16.80;99.90
52889;DHT22;41413;52.770;6.892;2023-04-25T09:27:30;16.40;95.70
52889;DHT22;41413;52.770;6.892;2023-04-25T09:29:59;16.10;96.50
52889;DHT22;41413;52.770;6.892;2023-04-25T09:32:27;15.10;97.60
52889;DHT22;41413;52.770;6.892;2023-04-25T09:34:56;14.80;98.90
52889;DHT22;41413;52.770;6.892;2023-04-25T09:37:27;14.20;98.30
52889;DHT22;41413;52.770;6.892;2023-04-25T09:39:58;13.90;98.80
52889;DHT22;41413;52.770;6.892;2023-04-25T09:42:27;13.90;96.60
52889;DHT22;41413;52.770;6.892;2023-04-25T09:44:56;13.60;98.80
52889;DHT22;41413;52.770;6.892;2023-04-25T09:47:24;14.50;99.70
52889;DHT22;41413;52.770;6.892;2023-04-25T09:49:52;15.40;97.80
52889;DHT22;41413;52.770;6.892;2023-04-25T09:52:23;15.60;97.50
52889;DHT22;41413;52.770;6.892;2023-04-25T09:54:52;15.00;96.50
52889;DHT22;41413;52.770;6.892;2023-04-25T09:57:19;14.60;97.70
52889;DHT22;41413;52.770;6.892;2023-04-25T09:59:48;13.60;97.80
52889;DHT22;41413;52.770;6.892;2023-04-25T10:02:18;13.10;99.20
52889;DHT22;41413;52.770;6.892;2023-04-25T10:04:55;12.80;99.60
52889;DHT22;41413;52.770;6.892;2023-04-25T10:07:24;12.20;99.80
52889;DHT22;41413;52.770;6.892;2023-04-25T10:10:01;12.10;99.90
52889;DHT22;41413;52.770;6.892;2023-04-25T10:12:33;12.40;99.90
52889;DHT22;41413;52.770;6.892;2023-04-25T10:15:01;13.00;99.90
52889;DHT22;41413;52.770;6.892;2023-04-25T10:17:29;13.30;99.30
52889;DHT22;41413;52.770;6.892;2023-04-25T10:19:56;13.60;98.90
52889;DHT22;41413;52.770;6.892;2023-04-25T10:22:29;14.30;98.10
52889;DHT22;41413;52.770;6.892;2023-04-25T10:24:57;15.20;98.10
52889;DHT22;41413;52.770;6.892;2023-04-25T10:27:27;16.10;96.80
52889;DHT22;41413;52.770;6.892;2023-04-25T10:30:07;16.70;96.10
52889;DHT22;41413;52.770;6.892;2023-04-25T10:32:36;16.70;94.30
52889;DHT22;41413;52.770;6.892;2023-04-25T10:35:16;17.50;95.60
52889;DHT22;41413;52.770;6.892;2023-04-25T10:38:08;18.20;92.70
52889;DHT22;41413;52.770;6.892;2023-04-25T10:40:36;17.60;92.40
52889;DHT22;41413;52.770;6.892;2023-04-25T10:45:59;14.70;95.90
52889;DHT22;41413;52.770;6.892;2023-04-25T10:48:30;13.20;98.70
52889;DHT22;41413;52.770;6.892;2023-04-25T10:51:10;12.40;99.90
52889;DHT22;41413;52.770;6.892;2023-04-25T10:53:37;12.00;99.90
52889;DHT22;41413;52.770;6.892;2023-04-25T10:56:17;12.30;99.90
52889;DHT22;41413;52.770;6.892;2023-04-25T10:58:44;13.00;99.90
52889;DHT22;41413;52.770;6.892;2023-04-25T11:01:19;13.70;99.90
52889;DHT22;41413;52.770;6.892;2023-04-25T11:03:46;14.40;99.90
52889;DHT22;41413;52.770;6.892;2023-04-25T11:06:31;15.20;99.90
52889;DHT22;41413;52.770;6.892;2023-04-25T11:09:10;15.80;99.40
52889;DHT22;41413;52.770;6.892;2023-04-25T11:11:39;15.80;97.90
52889;DHT22;41413;52.770;6.892;2023-04-25T11:14:06;15.70;99.40
52889;DHT22;41413;52.770;6.892;2023-04-25T11:16:33;15.50;99.90
52889;DHT22;41413;52.770;6.892;2023-04-25T11:19:00;15.50;99.10
52889;DHT22;41413;52.770;6.892;2023-04-25T11:21:26;16.00;98.50
52889;DHT22;41413;52.770;6.892;2023-04-25T11:23:56;16.20;98.80
52889;DHT22;41413;52.770;6.892;2023-04-25T11:26:24;15.90;98.20
52889;DHT22;41413;52.770;6.892;2023-04-25T11:28:51;15.50;98.60
52889;DHT22;41413;52.770;6.892;2023-04-25T11:31:20;15.40;97.70
52889;DHT22;41413;52.770;6.892;2023-04-25T11:33:48;14.00;98.60
52889;DHT22;41413;52.770;6.892;2023-04-25T11:36:15;13.30;99.90
52889;DHT22;41413;52.770;6.892;2023-04-25T11:38:41;13.00;99.90
52889;DHT22;41413;52.770;6.892;2023-04-25T11:41:08;12.70;99.90
52889;DHT22;41413;52.770;6.892;2023-04-25T11:43:35;12.90;99.90
52889;DHT22;41413;52.770;6.892;2023-04-25T11:46:06;12.90;99.90
52889;DHT22;41413;52.770;6.892;2023-04-25T11:48:41;13.20;99.90
52889;DHT22;41413;52.770;6.892;2023-04-25T11:51:08;12.60;99.90
52889;DHT22;41413;52.770;6.892;2023-04-25T11:53:35;12.10;99.90
52889;DHT22;41413;52.770;6.892;2023-04-25T11:56:09;11.50;99.90
52889;DHT22;41413;52.770;6.892;2023-04-25T12:04:09;11.30;99.90
52889;DHT22;41413;52.770;6.892;2023-04-25T12:06:40;11.70;99.90
52889;DHT22;41413;52.770;6.892;2023-04-25T12:09:09;12.30;99.90
52889;DHT22;41413;52.770;6.892;2023-04-25T12:11:42;12.70;99.90
52889;DHT22;41413;52.770;6.892;2023-04-25T12:14:23;13.40;99.90
52889;DHT22;41413;52.770;6.892;2023-04-25T12:16:51;13.30;99.90
52889;DHT22;41413;52.770;6.892;2023-04-25T12:19:19;13.50;99.90
52889;DHT22;41413;52.770;6.892;2023-04-25T12:21:47;13.90;99.80
52889;DHT22;41413;52.770;6.892;2023-04-25T12:24:21;14.00;99.60
52889;DHT22;41413;52.770;6.892;2023-04-25T12:27:00;14.40;98.50
52889;DHT22;41413;52.770;6.892;2023-04-25T12:29:30;14.60;98.80
52889;DHT22;41413;52.770;6.892;2023-04-25T12:32:13;14.30;98.90
52889;DHT22;41413;52.770;6.892;2023-04-25T12:34:42;14.40;99.40
52889;DHT22;41413;52.770;6.892;2023-04-25T12:37:09;14.10;98.60
52889;DHT22;41413;52.770;6.892;2023-04-25T12:39:36;14.00;99.10
52889;DHT22;41413;52.770;6.892;2023-04-25T12:42:03;14.40;98.40
52889;DHT22;41413;52.770;6.892;2023-04-25T12:44:33;14.60;98.90
52889;DHT22;41413;52.770;6.892;2023-04-25T12:47:00;14.70;98.40
52889;DHT22;41413;52.770;6.892;2023-04-25T12:49:27;14.60;97.50
52889;DHT22;41413;52.770;6.892;2023-04-25T12:51:54;14.50;97.90
52889;DHT22;41413;52.770;6.892;2023-04-25T12:54:20;14.50;97.30
52889;DHT22;41413;52.770;6.892;2023-04-25T12:56:47;14.30;97.50
52889;DHT22;41413;52.770;6.892;2023-04-25T12:59:14;14.00;97.50
52889;DHT22;41413;52.770;6.892;2023-04-25T13:01:41;13.90;97.70
52889;DHT22;41413;52.770;6.892;2023-04-25T13:04:08;13.80;98.40
52889;DHT22;41413;52.770;6.892;2023-04-25T13:06:35;13.50;98.50
52889;DHT22;41413;52.770;6.892;2023-04-25T13:09:02;13.40;99.20
52889;DHT22;41413;52.770;6.892;2023-04-25T13:11:29;13.40;99.60
52889;DHT22;41413;52.770;6.892;2023-04-25T13:14:01;13.60;99.10
52889;DHT22;41413;52.770;6.892;2023-04-25T13:16:28;13.70;97.40
52889;DHT22;41413;52.770;6.892;2023-04-25T13:18:55;13.40;96.60
52889;DHT22;41413;52.770;6.892;2023-04-25T13:21:22;13.10;97.30
52889;DHT22;41413;52.770;6.892;2023-04-25T13:23:50;12.90;97.30
52889;DHT22;41413;52.770;6.892;2023-04-25T13:26:17;13.00;96.90
52889;DHT22;41413;52.770;6.892;2023-04-25T13:28:44;12.70;96.60
52889;DHT22;41413;52.770;6.892;2023-04-25T13:31:11;12.70;96.90
52889;DHT22;41413;52.770;6.892;2023-04-25T13:33:38;12.50;96.80
52889;DHT22;41413;52.770;6.892;2023-04-25T13:36:04;12.70;97.10
52889;DHT22;41413;52.770;6.892;2023-04-25T13:38:32;12.80;97.10
52889;DHT22;41413;52.770;6.892;2023-04-25T13:40:58;13.10;97.10
52889;DHT22;41413;52.770;6.892;2023-04-25T13:43:25;13.20;97.20
52889;DHT22;41413;52.770;6.892;2023-04-25T13:45:52;13.40;97.40
52889;DHT22;41413;52.770;6.892;2023-04-25T13:48:19;13.40;97.40
52889;DHT22;41413;52.770;6.892;2023-04-25T13:50:46;13.60;96.30
52889;DHT22;41413;52.770;6.892;2023-04-25T13:53:13;13.50;96.60
52889;DHT22;41413;52.770;6.892;2023-04-25T13:55:40;13.10;96.40
52889;DHT22;41413;52.770;6.892;2023-04-25T13:58:06;13.00;96.00
52889;DHT22;41413;52.770;6.892;2023-04-25T14:00:38;13.10;95.30
52889;DHT22;41413;52.770;6.892;2023-04-25T14:03:06;13.10;95.80
52889;DHT22;41413;52.770;6.892;2023-04-25T14:05:37;13.00;96.30
52889;DHT22;41413;52.770;6.892;2023-04-25T14:08:06;13.10;96.60
52889;DHT22;41413;52.770;6.892;2023-04-25T14:10:33;13.40;96.60
52889;DHT22;41413;52.770;6.892;2023-04-25T14:13:01;13.50;96.20
52889;DHT22;41413;52.770;6.892;2023-04-25T14:15:27;13.30;96.70
52889;DHT22;41413;52.770;6.892;2023-04-25T14:17:54;13.20;97.60
52889;DHT22;41413;52.770;6.892;2023-04-25T14:20:21;12.80;98.80
52889;DHT22;41413;52.770;6.892;2023-04-25T14:22:50;12.00;99.90
52889;DHT22;41413;52.770;6.892;2023-04-25T14:25:16;11.40;99.90
52889;DHT22;41413;52.770;6.892;2023-04-25T14:27:43;11.10;99.90
52889;DHT22;41413;52.770;6.892;2023-04-25T14:30:13;10.90;99.90
52889;DHT22;41413;52.770;6.892;2023-04-25T14:32:40;11.10;99.90
52889;DHT22;41413;52.770;6.892;2023-04-25T14:35:07;11.30;99.90
52889;DHT22;41413;52.770;6.892;2023-04-25T14:37:34;11.70;99.90
52889;DHT22;41413;52.770;6.892;2023-04-25T14:40:01;11.90;99.90
52889;DHT22;41413;52.770;6.892;2023-04-25T14:42:28;12.00;99.90
52889;DHT22;41413;52.770;6.892;2023-04-25T14:44:54;12.20;99.90
52889;DHT22;41413;52.770;6.892;2023-04-25T14:47:21;12.40;99.90
52889;DHT22;41413;52.770;6.892;2023-04-25T14:49:48;12.40;99.90
52889;DHT22;41413;52.770;6.892;2023-04-25T14:52:20;12.50;99.90
52889;DHT22;41413;52.770;6.892;2023-04-25T14:54:47;12.10;99.90
52889;DHT22;41413;52.770;6.892;2023-04-25T14:57:15;11.90;99.90
52889;DHT22;41413;52.770;6.892;2023-04-25T14:59:42;11.50;99.90
52889;DHT22;41413;52.770;6.892;2023-04-25T15:02:09;11.40;99.90
52889;DHT22;41413;52.770;6.892;2023-04-25T15:04:35;11.50;99.90
52889;DHT22;41413;52.770;6.892;2023-04-25T15:07:02;11.70;99.90
52889;DHT22;41413;52.770;6.892;2023-04-25T15:09:30;11.70;99.90
52889;DHT22;41413;52.770;6.892;2023-04-25T15:11:57;11.70;99.90
52889;DHT22;41413;52.770;6.892;2023-04-25T15:14:24;11.70;99.90
52889;DHT22;41413;52.770;6.892;2023-04-25T15:16:51;11.70;99.90
52889;DHT22;41413;52.770;6.892;2023-04-25T15:19:18;11.80;99.90
52889;DHT22;41413;52.770;6.892;2023-04-25T15:21:45;12.00;99.90
52889;DHT22;41413;52.770;6.892;2023-04-25T15:24:12;12.10;99.90
52889;DHT22;41413;52.770;6.892;2023-04-25T15:26:41;12.10;98.80
52889;DHT22;41413;52.770;6.892;2023-04-25T15:29:07;12.20;99.00
52889;DHT22;41413;52.770;6.892;2023-04-25T15:31:34;12.20;99.10
52889;DHT22;41413;52.770;6.892;2023-04-25T15:34:01;11.90;98.90
52889;DHT22;41413;52.770;6.892;2023-04-25T15:36:28;11.90;98.80
52889;DHT22;41413;52.770;6.892;2023-04-25T15:38:54;11.80;99.40
52889;DHT22;41413;52.770;6.892;2023-04-25T15:41:22;11.80;99.40
52889;DHT22;41413;52.770;6.892;2023-04-25T15:43:49;11.80;99.40
52889;DHT22;41413;52.770;6.892;2023-04-25T15:46:16;11.50;99.40
52889;DHT22;41413;52.770;6.892;2023-04-25T15:48:43;11.40;99.90
52889;DHT22;41413;52.770;6.892;2023-04-25T15:51:10;11.30;99.90